Cortland, Ohio
Current Conditions -  °F | °C
As of 6:51 PM on Monday 24 Nov 2014 (Local Time) from KYNG Reporting Station
Few Clouds Few Clouds  
Wind Chill: 39°   Ceiling: Unl
Heat Index: 47°   Visibility: 10mi
Dew Point: 36°   Wind: 23mph
Humidity: 66%   Direction: 230°SW
Pressure: 29.65"   Gusts: 28mph
Location:  41.34°N, 80.72°W
Report Text: KYNG 242351Z 23020G24KT 10SM FEW036 08/02 A2965 RMK AO2 PK WND 22026/2336 SLP040 60001 T00830022 10178 20083 51056
Loading
Personal Weather Stations






























Interactive Weather Map New forecast layout! Learn more

10-Day Weather Forecast

Advertisements
Track Severe Weather on mobile